Time;durP1;ratioP1;P1;durP2;ratioP2;P2;SDS_P1;SDS_P2;PMS_P1;PMS_P2;Temp;Humidity;BMP_temperature;BMP_pressure;BME280_temperature;BME280_humidity;BME280_pressure;Samples;Min_cycle;Max_cycle;Signal;HPM_P1;HPM_P2
2024/01/16 00:00:51;;;;;;;;;;;4.80;78.20;;;;;;5046927;28;20019;-58
2024/01/16 00:03:23;;;;;;;;;;;4.80;78.20;;;;;;5047401;28;19932;-57
2024/01/16 00:05:49;;;;;;;;;;;4.80;78.20;;;;;;5050456;28;19924;-54
2024/01/16 00:08:18;;;;;;;;;;;4.80;78.20;;;;;;5050534;28;19927;-56
2024/01/16 00:10:44;;;;;;;;;;;4.80;78.10;;;;;;5045063;28;19927;-55
2024/01/16 00:13:11;;;;;;;;;;;4.80;78.10;;;;;;5051032;28;19920;-54
2024/01/16 00:15:38;;;;;;;;;;;4.80;78.10;;;;;;5050502;28;19921;-56
2024/01/16 00:18:04;;;;;;;;;;;4.80;78.00;;;;;;5048580;28;20452;-55
2024/01/16 00:20:33;;;;;;;;;;;4.80;78.00;;;;;;5051173;28;20452;-54
2024/01/16 00:23:00;;;;;;;;;;;4.80;78.00;;;;;;5042273;28;20018;-54
2024/01/16 00:25:27;;;;;;;;;;;4.70;77.90;;;;;;5050878;28;19920;-56
2024/01/16 00:27:57;;;;;;;;;;;4.70;77.90;;;;;;5046458;28;19963;-57
2024/01/16 00:30:25;;;;;;;;;;;4.70;77.90;;;;;;5044679;28;19927;-55
2024/01/16 00:32:52;;;;;;;;;;;4.70;77.90;;;;;;5043704;28;20011;-57
2024/01/16 00:35:21;;;;;;;;;;;4.70;77.90;;;;;;5050411;28;19921;-55
2024/01/16 00:37:55;;;;;;;;;;;4.70;77.90;;;;;;5050045;28;20007;-57
2024/01/16 00:40:23;;;;;;;;;;;4.70;77.90;;;;;;5048045;28;19967;-57
2024/01/16 00:42:50;;;;;;;;;;;4.70;78.00;;;;;;5049190;28;20344;-57
2024/01/16 00:45:22;;;;;;;;;;;4.70;77.90;;;;;;5050170;28;19958;-56
2024/01/16 00:47:48;;;;;;;;;;;4.70;78.00;;;;;;5049803;28;19927;-56
2024/01/16 00:50:15;;;;;;;;;;;4.70;78.00;;;;;;5044454;28;19931;-54
2024/01/16 00:52:42;;;;;;;;;;;4.70;78.00;;;;;;5049824;28;20023;-54
2024/01/16 00:55:10;;;;;;;;;;;4.70;78.00;;;;;;5032363;28;19963;-54
2024/01/16 00:57:38;;;;;;;;;;;4.70;78.00;;;;;;5048204;28;19928;-55
2024/01/16 01:00:09;;;;;;;;;;;4.70;78.00;;;;;;5044282;28;20416;-56
2024/01/16 01:02:42;;;;;;;;;;;4.70;78.00;;;;;;5043213;28;20381;-57
2024/01/16 01:05:13;;;;;;;;;;;4.80;78.10;;;;;;5050206;28;20003;-54
2024/01/16 01:07:45;;;;;;;;;;;4.80;78.10;;;;;;5049774;28;20013;-53
2024/01/16 01:10:13;;;;;;;;;;;4.80;78.10;;;;;;5046060;28;20378;-57
2024/01/16 01:12:43;;;;;;;;;;;4.80;78.10;;;;;;5049638;28;19920;-54
2024/01/16 01:15:10;;;;;;;;;;;4.80;78.00;;;;;;5049819;28;20410;-57
2024/01/16 01:17:42;;;;;;;;;;;4.80;78.00;;;;;;5045293;28;19928;-57
2024/01/16 01:20:19;;;;;;;;;;;4.80;78.00;;;;;;5046920;28;19960;-56
2024/01/16 01:22:46;;;;;;;;;;;4.80;78.00;;;;;;5049473;28;19921;-55
2024/01/16 01:25:13;;;;;;;;;;;4.80;78.00;;;;;;5049915;28;20010;-57
2024/01/16 01:27:43;;;;;;;;;;;4.80;78.00;;;;;;5048926;28;19924;-56
2024/01/16 01:30:11;;;;;;;;;;;4.80;78.00;;;;;;5047399;28;20106;-57
2024/01/16 01:32:40;;;;;;;;;;;4.80;77.90;;;;;;5050896;28;20389;-55
2024/01/16 01:35:15;;;;;;;;;;;4.80;77.90;;;;;;5054659;28;19943;-53
2024/01/16 01:37:49;;;;;;;;;;;4.80;78.00;;;;;;5052936;28;20015;-56
2024/01/16 01:40:17;;;;;;;;;;;4.80;77.90;;;;;;5046438;28;20035;-57
2024/01/16 01:42:44;;;;;;;;;;;4.80;77.90;;;;;;5053538;28;20338;-57
2024/01/16 01:45:22;;;;;;;;;;;4.80;77.90;;;;;;5053398;28;19970;-55
2024/01/16 01:47:48;;;;;;;;;;;4.80;77.90;;;;;;5053252;28;20008;-53
2024/01/16 01:50:16;;;;;;;;;;;4.80;77.90;;;;;;5043538;28;19920;-57
2024/01/16 01:52:43;;;;;;;;;;;4.80;77.90;;;;;;5045484;28;19967;-57
2024/01/16 01:55:13;;;;;;;;;;;4.80;78.50;;;;;;5053633;28;20324;-57
2024/01/16 01:57:44;;;;;;;;;;;4.80;77.90;;;;;;5048331;28;19921;-57
2024/01/16 02:00:18;;;;;;;;;;;4.80;77.80;;;;;;5047516;28;20030;-57
2024/01/16 02:02:45;;;;;;;;;;;4.80;77.90;;;;;;5050161;28;19982;-55
2024/01/16 02:05:12;;;;;;;;;;;4.80;77.80;;;;;;5053267;28;19931;-55
2024/01/16 02:07:42;;;;;;;;;;;4.80;77.80;;;;;;5052772;28;19921;-57
2024/01/16 02:10:09;;;;;;;;;;;4.80;77.90;;;;;;5050980;28;19963;-56
2024/01/16 02:12:36;;;;;;;;;;;4.80;77.80;;;;;;5051070;28;19969;-56
2024/01/16 02:15:03;;;;;;;;;;;4.80;77.80;;;;;;5052766;28;19925;-53
2024/01/16 02:17:31;;;;;;;;;;;4.80;77.80;;;;;;5052290;28;19925;-57
2024/01/16 02:19:58;;;;;;;;;;;4.80;77.70;;;;;;5049916;28;20346;-54
2024/01/16 02:22:26;;;;;;;;;;;4.80;77.70;;;;;;5049878;28;19921;-55
2024/01/16 02:24:52;;;;;;;;;;;4.80;77.70;;;;;;5052720;28;20020;-57
2024/01/16 02:27:19;;;;;;;;;;;4.80;77.70;;;;;;5052738;28;20461;-56
2024/01/16 02:29:46;;;;;;;;;;;4.80;77.80;;;;;;5048558;28;19974;-55
2024/01/16 02:32:15;;;;;;;;;;;4.80;77.80;;;;;;5044818;28;19924;-56
2024/01/16 02:34:43;;;;;;;;;;;4.80;77.80;;;;;;5034359;28;19921;-56
2024/01/16 02:37:12;;;;;;;;;;;4.80;77.80;;;;;;5047005;28;20019;-57
2024/01/16 02:39:39;;;;;;;;;;;4.80;77.80;;;;;;5052523;28;20432;-57
2024/01/16 02:42:08;;;;;;;;;;;4.80;77.70;;;;;;5045330;28;20354;-55
2024/01/16 02:44:35;;;;;;;;;;;4.80;77.70;;;;;;5048555;28;20361;-56
2024/01/16 02:47:07;;;;;;;;;;;4.80;77.70;;;;;;5052462;28;20069;-56
2024/01/16 02:49:33;;;;;;;;;;;4.80;77.70;;;;;;5052570;28;19948;-56
2024/01/16 02:52:00;;;;;;;;;;;4.80;77.70;;;;;;5051698;28;19928;-57
2024/01/16 02:54:28;;;;;;;;;;;4.80;77.70;;;;;;5049764;28;19924;-55
2024/01/16 02:57:02;;;;;;;;;;;4.80;77.70;;;;;;5050691;28;19943;-54
2024/01/16 02:59:31;;;;;;;;;;;4.80;77.70;;;;;;5052293;28;19966;-55
2024/01/16 03:02:00;;;;;;;;;;;4.80;77.70;;;;;;5048785;28;19928;-56
2024/01/16 03:04:31;;;;;;;;;;;4.80;77.70;;;;;;5051931;28;19927;-58
2024/01/16 03:06:58;;;;;;;;;;;4.80;77.60;;;;;;5051790;28;19959;-54
2024/01/16 03:09:32;;;;;;;;;;;4.80;77.60;;;;;;5051926;28;19924;-56
2024/01/16 03:12:04;;;;;;;;;;;4.80;77.60;;;;;;5043524;28;19936;-57
2024/01/16 03:14:35;;;;;;;;;;;4.80;77.60;;;;;;5051748;28;20354;-57
2024/01/16 03:17:03;;;;;;;;;;;4.70;77.60;;;;;;5052039;28;20015;-57
2024/01/16 03:19:31;;;;;;;;;;;4.70;77.50;;;;;;5051002;28;20463;-54
2024/01/16 03:22:00;;;;;;;;;;;4.70;77.50;;;;;;5050852;28;20455;-56
2024/01/16 03:24:28;;;;;;;;;;;4.70;77.50;;;;;;5051736;28;19924;-57
2024/01/16 03:26:56;;;;;;;;;;;4.70;77.50;;;;;;5049731;28;20368;-53
2024/01/16 03:29:22;;;;;;;;;;;4.70;77.50;;;;;;5049017;28;19921;-53
2024/01/16 03:31:53;;;;;;;;;;;4.60;77.40;;;;;;5031520;28;20336;-55
2024/01/16 03:34:24;;;;;;;;;;;4.70;77.50;;;;;;5050972;28;19944;-57
2024/01/16 03:36:51;;;;;;;;;;;4.70;77.60;;;;;;5046662;28;19921;-55
2024/01/16 03:39:20;;;;;;;;;;;4.60;77.60;;;;;;5051756;28;19920;-54
2024/01/16 03:41:47;;;;;;;;;;;4.60;77.60;;;;;;5051028;28;19955;-57
2024/01/16 03:44:13;;;;;;;;;;;4.60;77.60;;;;;;5046233;28;19928;-56
2024/01/16 03:46:41;;;;;;;;;;;4.70;77.60;;;;;;5048922;28;20297;-55
2024/01/16 03:49:07;;;;;;;;;;;4.60;77.50;;;;;;5051377;28;19957;-58
2024/01/16 03:51:34;;;;;;;;;;;4.60;77.50;;;;;;5050745;28;20035;-55
2024/01/16 03:54:04;;;;;;;;;;;4.60;77.50;;;;;;5048581;28;19939;-56
2024/01/16 03:56:31;;;;;;;;;;;4.60;77.60;;;;;;5050994;28;19970;-57
2024/01/16 03:59:00;;;;;;;;;;;4.60;78.20;;;;;;5049603;28;20390;-56
2024/01/16 04:01:31;;;;;;;;;;;4.60;77.60;;;;;;5029860;28;19932;-57
2024/01/16 04:03:57;;;;;;;;;;;4.60;77.60;;;;;;5049252;28;19955;-57
2024/01/16 04:06:24;;;;;;;;;;;4.60;77.60;;;;;;5050753;28;19943;-53
2024/01/16 04:08:53;;;;;;;;;;;4.60;77.60;;;;;;5050147;28;19921;-53
2024/01/16 04:11:22;;;;;;;;;;;4.60;77.60;;;;;;5047293;28;19924;-56
2024/01/16 04:13:49;;;;;;;;;;;4.60;77.60;;;;;;5046234;28;19927;-54
2024/01/16 04:16:18;;;;;;;;;;;4.60;77.60;;;;;;5052338;28;20308;-53
2024/01/16 04:18:45;;;;;;;;;;;4.60;77.50;;;;;;5050736;28;19927;-55
2024/01/16 04:21:14;;;;;;;;;;;4.60;77.50;;;;;;5051463;28;19927;-57
2024/01/16 04:23:45;;;;;;;;;;;4.50;77.50;;;;;;5050169;28;19925;-56
2024/01/16 04:26:11;;;;;;;;;;;4.60;77.60;;;;;;5044195;28;19924;-56
2024/01/16 04:28:38;;;;;;;;;;;4.50;77.40;;;;;;5032628;28;19947;-56
2024/01/16 04:31:11;;;;;;;;;;;4.50;77.40;;;;;;5045744;28;19952;-57
2024/01/16 04:33:38;;;;;;;;;;;4.50;77.30;;;;;;5049922;28;20019;-57
2024/01/16 04:36:06;;;;;;;;;;;4.50;77.20;;;;;;5047198;28;19955;-57
2024/01/16 04:38:36;;;;;;;;;;;4.50;77.10;;;;;;5048450;28;19925;-54
2024/01/16 04:41:03;;;;;;;;;;;4.50;77.00;;;;;;5032287;28;19921;-57
2024/01/16 04:43:32;;;;;;;;;;;4.40;77.00;;;;;;5050460;28;20394;-57
2024/01/16 04:45:58;;;;;;;;;;;4.40;76.90;;;;;;5047810;28;20394;-53
2024/01/16 04:48:29;;;;;;;;;;;4.40;76.90;;;;;;5050046;28;19921;-55
2024/01/16 04:50:56;;;;;;;;;;;4.30;76.90;;;;;;5049700;28;20019;-57
2024/01/16 04:53:23;;;;;;;;;;;4.30;76.80;;;;;;5050614;28;19921;-57
2024/01/16 04:55:50;;;;;;;;;;;4.30;76.80;;;;;;5046023;28;19964;-57
2024/01/16 04:58:16;;;;;;;;;;;4.20;76.80;;;;;;5050472;28;19921;-56
2024/01/16 05:00:43;;;;;;;;;;;4.20;76.80;;;;;;5047703;28;19967;-54
2024/01/16 05:03:09;;;;;;;;;;;4.20;76.80;;;;;;5047991;28;19966;-57
2024/01/16 05:05:36;;;;;;;;;;;4.10;76.80;;;;;;5049700;28;19924;-57
2024/01/16 05:08:03;;;;;;;;;;;4.10;76.80;;;;;;5049908;28;19956;-57
2024/01/16 05:10:30;;;;;;;;;;;4.10;76.80;;;;;;5044907;28;20271;-56
2024/01/16 05:12:58;;;;;;;;;;;4.10;76.80;;;;;;5049906;28;20456;-56
2024/01/16 05:15:25;;;;;;;;;;;4.00;76.70;;;;;;5049847;28;19921;-53
2024/01/16 05:17:54;;;;;;;;;;;4.00;76.70;;;;;;5046300;28;19931;-54
2024/01/16 05:20:21;;;;;;;;;;;4.00;76.70;;;;;;5047530;28;19974;-55
2024/01/16 05:22:48;;;;;;;;;;;3.90;77.30;;;;;;5056412;28;19924;-56
2024/01/16 05:25:17;;;;;;;;;;;3.90;76.70;;;;;;5049830;28;19920;-55
2024/01/16 05:27:43;;;;;;;;;;;3.90;76.70;;;;;;5047453;28;19956;-56
2024/01/16 05:30:10;;;;;;;;;;;3.90;76.70;;;;;;5046040;28;19920;-53
2024/01/16 05:32:39;;;;;;;;;;;3.80;76.60;;;;;;5043157;28;20302;-53
2024/01/16 05:35:07;;;;;;;;;;;3.80;76.70;;;;;;5049081;28;19970;-57
2024/01/16 05:37:34;;;;;;;;;;;3.80;76.60;;;;;;5045622;28;19968;-56
2024/01/16 05:40:02;;;;;;;;;;;3.80;76.70;;;;;;5054011;28;20390;-57
2024/01/16 05:42:29;;;;;;;;;;;3.80;76.80;;;;;;5049134;28;20500;-55
2024/01/16 05:44:56;;;;;;;;;;;3.80;76.80;;;;;;5040370;28;20382;-57
2024/01/16 05:47:24;;;;;;;;;;;3.80;76.70;;;;;;5042824;28;20016;-57
2024/01/16 05:49:51;;;;;;;;;;;3.70;76.60;;;;;;5048297;28;19921;-57
2024/01/16 05:52:17;;;;;;;;;;;3.70;76.70;;;;;;5049485;28;20465;-56
2024/01/16 05:54:44;;;;;;;;;;;3.70;76.80;;;;;;5046118;28;19927;-57
2024/01/16 05:57:11;;;;;;;;;;;3.70;76.80;;;;;;5060108;22;20016;-57
2024/01/16 05:59:37;;;;;;;;;;;3.70;76.80;;;;;;5028562;28;20421;-56
2024/01/16 06:02:04;;;;;;;;;;;3.70;76.80;;;;;;5013714;28;20294;-56
2024/01/16 06:04:31;;;;;;;;;;;3.70;76.80;;;;;;5043575;28;20012;-57
2024/01/16 06:06:57;;;;;;;;;;;3.60;76.70;;;;;;5041724;28;19921;-55
2024/01/16 06:09:24;;;;;;;;;;;3.60;76.70;;;;;;5044060;28;20275;-56
2024/01/16 06:11:50;;;;;;;;;;;3.60;76.60;;;;;;5031063;28;20011;-56
2024/01/16 06:14:21;;;;;;;;;;;3.60;76.60;;;;;;5034424;28;20011;-55
2024/01/16 06:16:48;;;;;;;;;;;3.60;76.60;;;;;;5034966;28;19943;-55
2024/01/16 06:19:16;;;;;;;;;;;3.60;76.60;;;;;;5039076;28;20386;-54
2024/01/16 06:21:42;;;;;;;;;;;3.50;76.50;;;;;;5030306;28;19931;-53
2024/01/16 06:24:11;;;;;;;;;;;3.50;76.40;;;;;;5043761;28;19955;-55
2024/01/16 06:26:38;;;;;;;;;;;3.50;76.40;;;;;;5032043;28;20375;-53
2024/01/16 06:29:04;;;;;;;;;;;3.40;76.30;;;;;;5031643;28;19999;-56
2024/01/16 06:31:33;;;;;;;;;;;3.40;76.30;;;;;;5029233;28;19925;-55
2024/01/16 06:34:00;;;;;;;;;;;3.40;76.30;;;;;;5033219;28;19932;-56
2024/01/16 06:36:27;;;;;;;;;;;3.30;76.20;;;;;;5041590;28;20393;-55
2024/01/16 06:38:53;;;;;;;;;;;3.30;76.30;;;;;;5041103;28;19925;-56
2024/01/16 06:41:20;;;;;;;;;;;3.30;76.40;;;;;;5037574;28;20509;-56
2024/01/16 06:43:47;;;;;;;;;;;3.30;76.40;;;;;;5030387;28;19932;-54
2024/01/16 06:46:14;;;;;;;;;;;3.30;76.50;;;;;;5029707;28;20477;-55
2024/01/16 06:48:42;;;;;;;;;;;3.30;76.60;;;;;;5030155;28;19924;-56
2024/01/16 06:51:10;;;;;;;;;;;3.30;76.70;;;;;;5032793;28;19932;-55
2024/01/16 06:53:39;;;;;;;;;;;3.20;76.70;;;;;;5040168;28;19955;-55
2024/01/16 06:56:06;;;;;;;;;;;3.30;76.90;;;;;;5025677;28;19932;-56
2024/01/16 06:58:33;;;;;;;;;;;3.30;76.80;;;;;;5045071;28;20287;-55
2024/01/16 07:01:00;;;;;;;;;;;3.30;76.80;;;;;;5033614;28;19925;-55
2024/01/16 07:03:27;;;;;;;;;;;3.30;76.80;;;;;;5040427;28;19932;-56
2024/01/16 07:05:53;;;;;;;;;;;3.30;76.80;;;;;;5026910;28;19948;-55
2024/01/16 07:08:20;;;;;;;;;;;3.30;76.80;;;;;;5037095;28;19946;-55
2024/01/16 07:10:47;;;;;;;;;;;3.30;76.80;;;;;;5042074;28;20015;-54
2024/01/16 07:13:14;;;;;;;;;;;3.30;76.80;;;;;;5035212;28;19934;-56
2024/01/16 07:15:40;;;;;;;;;;;3.30;76.80;;;;;;5030008;28;20016;-56
2024/01/16 07:18:07;;;;;;;;;;;3.30;76.70;;;;;;5034462;28;19924;-55
2024/01/16 07:20:34;;;;;;;;;;;3.30;76.70;;;;;;5035513;28;19924;-56
2024/01/16 07:23:01;;;;;;;;;;;3.30;76.60;;;;;;5027071;28;20343;-52
2024/01/16 07:25:28;;;;;;;;;;;3.30;76.50;;;;;;5042435;28;19981;-55
2024/01/16 07:27:54;;;;;;;;;;;3.30;76.40;;;;;;5041309;28;19953;-56
2024/01/16 07:30:21;;;;;;;;;;;3.30;76.30;;;;;;5040620;28;19960;-55
2024/01/16 07:32:48;;;;;;;;;;;3.30;76.20;;;;;;5032921;28;20013;-54
2024/01/16 07:35:15;;;;;;;;;;;3.30;76.10;;;;;;5037519;28;19924;-56
2024/01/16 07:37:42;;;;;;;;;;;3.30;76.10;;;;;;5039632;28;20634;-56
2024/01/16 07:40:09;;;;;;;;;;;3.30;76.00;;;;;;5044082;28;19961;-55
2024/01/16 07:42:36;;;;;;;;;;;3.30;76.00;;;;;;5030128;28;19951;-56
2024/01/16 07:45:04;;;;;;;;;;;3.20;75.80;;;;;;5035195;28;19925;-55
2024/01/16 07:47:31;;;;;;;;;;;3.20;75.80;;;;;;5037986;28;19920;-55
2024/01/16 07:49:58;;;;;;;;;;;3.20;75.80;;;;;;5035247;28;19921;-55
2024/01/16 07:52:25;;;;;;;;;;;3.20;75.80;;;;;;5039533;28;19921;-54
2024/01/16 07:54:51;;;;;;;;;;;3.10;75.70;;;;;;5042620;28;20409;-55
2024/01/16 07:57:18;;;;;;;;;;;3.20;75.80;;;;;;5043878;28;20354;-55
2024/01/16 07:59:45;;;;;;;;;;;3.20;75.90;;;;;;5034550;28;19967;-55
2024/01/16 08:02:12;;;;;;;;;;;3.20;76.00;;;;;;5034339;28;19921;-55
2024/01/16 08:04:38;;;;;;;;;;;3.20;76.00;;;;;;5026210;28;20359;-55
2024/01/16 08:07:05;;;;;;;;;;;3.20;76.00;;;;;;5024826;28;19971;-54
2024/01/16 08:09:32;;;;;;;;;;;3.10;75.90;;;;;;5038041;28;20369;-56
2024/01/16 08:11:58;;;;;;;;;;;3.10;76.00;;;;;;5009264;28;19986;-56
2024/01/16 08:14:25;;;;;;;;;;;3.10;76.00;;;;;;5034659;28;19921;-55
2024/01/16 08:16:52;;;;;;;;;;;3.10;76.00;;;;;;5036723;28;19921;-55
2024/01/16 08:19:18;;;;;;;;;;;3.10;76.10;;;;;;5035071;28;19921;-55
2024/01/16 08:21:45;;;;;;;;;;;3.20;76.20;;;;;;5040186;28;20732;-55
2024/01/16 08:24:12;;;;;;;;;;;3.20;76.30;;;;;;5043007;28;19921;-55
2024/01/16 08:26:39;;;;;;;;;;;3.20;76.30;;;;;;5039958;28;19931;-55
2024/01/16 08:29:05;;;;;;;;;;;3.20;76.30;;;;;;5024924;28;20470;-54
2024/01/16 08:31:32;;;;;;;;;;;3.20;76.30;;;;;;5033790;28;20379;-55
2024/01/16 08:33:58;;;;;;;;;;;3.30;76.40;;;;;;5042132;28;19928;-51
2024/01/16 08:36:25;;;;;;;;;;;3.30;76.40;;;;;;5043705;28;19928;-55
2024/01/16 08:38:52;;;;;;;;;;;3.30;76.40;;;;;;5033003;28;19921;-54
2024/01/16 08:41:18;;;;;;;;;;;3.30;76.40;;;;;;5030745;28;19925;-55
2024/01/16 08:43:45;;;;;;;;;;;3.40;76.40;;;;;;5024773;28;19921;-55
2024/01/16 08:46:12;;;;;;;;;;;3.40;76.40;;;;;;5038443;28;20315;-55
2024/01/16 08:48:40;;;;;;;;;;;3.40;76.40;;;;;;5042718;28;20020;-55
2024/01/16 08:51:09;;;;;;;;;;;3.40;76.40;;;;;;5036175;28;20394;-52
2024/01/16 08:53:36;;;;;;;;;;;3.50;76.40;;;;;;5043508;28;20408;-56
2024/01/16 08:56:03;;;;;;;;;;;3.50;76.40;;;;;;5027459;28;20477;-55
2024/01/16 08:58:30;;;;;;;;;;;3.50;76.40;;;;;;5030700;28;19921;-55
2024/01/16 09:00:56;;;;;;;;;;;3.60;76.40;;;;;;5034182;28;19968;-55
2024/01/16 09:03:23;;;;;;;;;;;3.60;76.30;;;;;;5033815;28;19921;-55
2024/01/16 09:05:50;;;;;;;;;;;3.60;76.30;;;;;;5040807;28;19993;-55
2024/01/16 09:08:16;;;;;;;;;;;3.70;76.30;;;;;;5042520;28;19921;-55
2024/01/16 09:10:43;;;;;;;;;;;3.70;76.40;;;;;;5034600;28;19925;-55
2024/01/16 09:13:11;;;;;;;;;;;3.80;76.30;;;;;;5039911;28;19956;-55
2024/01/16 09:15:37;;;;;;;;;;;3.80;76.30;;;;;;5045139;28;20011;-55
2024/01/16 09:18:04;;;;;;;;;;;3.80;76.20;;;;;;5035870;28;20347;-55
2024/01/16 09:20:31;;;;;;;;;;;3.90;76.20;;;;;;5042942;28;20403;-54
2024/01/16 09:22:58;;;;;;;;;;;3.90;76.00;;;;;;5036363;28;19967;-55
2024/01/16 09:25:27;;;;;;;;;;;3.90;76.00;;;;;;5034364;28;19924;-56
2024/01/16 09:27:53;;;;;;;;;;;4.00;76.10;;;;;;5028852;28;19972;-56
2024/01/16 09:30:22;;;;;;;;;;;4.00;76.10;;;;;;5038566;28;19967;-56
2024/01/16 09:32:49;;;;;;;;;;;4.10;76.10;;;;;;5032432;28;19921;-55
2024/01/16 09:35:15;;;;;;;;;;;4.10;75.90;;;;;;5031267;28;20144;-55
2024/01/16 09:37:42;;;;;;;;;;;4.10;75.90;;;;;;5041173;28;20294;-56
2024/01/16 09:40:09;;;;;;;;;;;4.10;75.60;;;;;;5037381;28;19972;-54
2024/01/16 09:42:36;;;;;;;;;;;4.20;75.60;;;;;;5036390;28;20022;-53
2024/01/16 09:45:03;;;;;;;;;;;4.20;75.50;;;;;;5039620;28;19970;-55
2024/01/16 09:47:33;;;;;;;;;;;4.20;75.20;;;;;;5042535;28;19927;-53
2024/01/16 09:50:02;;;;;;;;;;;4.10;75.30;;;;;;5028974;28;19975;-55
2024/01/16 09:52:29;;;;;;;;;;;4.20;75.40;;;;;;5042751;28;19920;-55
2024/01/16 09:54:56;;;;;;;;;;;4.20;75.30;;;;;;5039661;28;20401;-55
2024/01/16 09:57:25;;;;;;;;;;;4.20;75.00;;;;;;5044735;28;19990;-55
2024/01/16 09:59:51;;;;;;;;;;;4.20;75.00;;;;;;5019010;28;20006;-55
2024/01/16 10:02:19;;;;;;;;;;;4.20;75.10;;;;;;5033511;28;19928;-55
2024/01/16 10:04:48;;;;;;;;;;;4.20;75.10;;;;;;5041677;28;19927;-56
2024/01/16 10:07:15;;;;;;;;;;;4.20;75.80;;;;;;5043898;28;20008;-54
2024/01/16 10:09:43;;;;;;;;;;;4.20;75.20;;;;;;5037212;28;19965;-55
2024/01/16 10:12:10;;;;;;;;;;;4.20;75.20;;;;;;5036396;28;19956;-55
2024/01/16 10:14:36;;;;;;;;;;;4.20;75.30;;;;;;5047658;28;19924;-54
2024/01/16 10:17:14;;;;;;;;;;;4.20;75.30;;;;;;5041719;28;19967;-54
2024/01/16 10:19:54;;;;;;;;;;;4.30;75.20;;;;;;5034029;28;20008;-55
2024/01/16 10:22:22;;;;;;;;;;;4.30;75.30;;;;;;5043441;28;19929;-55
2024/01/16 10:25:04;;;;;;;;;;;4.30;75.20;;;;;;5042729;28;19920;-54
2024/01/16 10:27:33;;;;;;;;;;;4.40;75.30;;;;;;5036330;28;19921;-55
2024/01/16 10:30:00;;;;;;;;;;;4.40;75.40;;;;;;5032906;28;19956;-55
2024/01/16 10:32:29;;;;;;;;;;;4.40;75.00;;;;;;5028890;28;19925;-53
2024/01/16 10:35:10;;;;;;;;;;;4.50;75.00;;;;;;5036730;28;19928;-53
2024/01/16 10:37:47;;;;;;;;;;;4.50;75.10;;;;;;5035960;28;19948;-55
2024/01/16 10:40:18;;;;;;;;;;;4.50;74.70;;;;;;5033382;28;19971;-51
2024/01/16 10:43:03;;;;;;;;;;;4.40;74.40;;;;;;5036042;28;19925;-54
2024/01/16 10:45:30;;;;;;;;;;;4.40;74.40;;;;;;5035212;28;20447;-54
2024/01/16 10:48:00;;;;;;;;;;;4.40;74.30;;;;;;5035608;28;20390;-53
2024/01/16 10:50:27;;;;;;;;;;;4.40;74.20;;;;;;5036631;28;19925;-53
2024/01/16 10:52:54;;;;;;;;;;;4.30;74.10;;;;;;5036655;28;20019;-51
2024/01/16 10:55:24;;;;;;;;;;;4.30;73.90;;;;;;5039158;28;19921;-51
2024/01/16 10:57:50;;;;;;;;;;;4.30;73.90;;;;;;5028971;28;19962;-51
2024/01/16 11:00:21;;;;;;;;;;;4.30;73.70;;;;;;5034993;28;20670;-51
2024/01/16 11:02:47;;;;;;;;;;;4.20;73.70;;;;;;5031353;28;19924;-54
2024/01/16 11:05:16;;;;;;;;;;;4.20;73.90;;;;;;5039230;28;19925;-53
2024/01/16 11:07:44;;;;;;;;;;;4.20;74.20;;;;;;5040374;28;20365;-56
2024/01/16 11:10:10;;;;;;;;;;;4.20;73.70;;;;;;5030796;28;20297;-54
2024/01/16 11:12:40;;;;;;;;;;;4.20;73.80;;;;;;5040654;28;20020;-52
2024/01/16 11:15:08;;;;;;;;;;;4.20;73.90;;;;;;5036982;28;19928;-53
2024/01/16 11:17:36;;;;;;;;;;;4.20;73.80;;;;;;5040941;28;19955;-54
2024/01/16 11:20:09;;;;;;;;;;;4.20;73.90;;;;;;5031390;28;19984;-54
2024/01/16 11:22:59;;;;;;;;;;;4.20;74.00;;;;;;5034130;28;20663;-52
2024/01/16 11:25:32;;;;;;;;;;;4.20;74.10;;;;;;5033176;28;19921;-52
2024/01/16 11:28:09;;;;;;;;;;;4.20;73.70;;;;;;5027255;28;19924;-51
2024/01/16 11:30:36;;;;;;;;;;;4.20;73.90;;;;;;5028807;28;19924;-55
2024/01/16 11:33:05;;;;;;;;;;;4.20;73.70;;;;;;5029808;28;19925;-54
2024/01/16 11:35:39;;;;;;;;;;;4.20;73.80;;;;;;5032218;28;19931;-53
2024/01/16 11:38:08;;;;;;;;;;;4.20;73.90;;;;;;5029714;28;19924;-56
2024/01/16 11:40:35;;;;;;;;;;;4.20;73.70;;;;;;5028624;28;19956;-54
2024/01/16 11:43:20;;;;;;;;;;;4.20;73.70;;;;;;5031224;28;19925;-55
2024/01/16 11:45:47;;;;;;;;;;;4.20;73.60;;;;;;5026793;28;20610;-55
2024/01/16 11:48:15;;;;;;;;;;;4.20;73.60;;;;;;5032401;28;19921;-55
2024/01/16 11:50:43;;;;;;;;;;;4.20;73.70;;;;;;5038220;28;20393;-56
2024/01/16 11:53:10;;;;;;;;;;;4.20;73.70;;;;;;5031593;28;19921;-52
2024/01/16 11:55:50;;;;;;;;;;;4.30;73.60;;;;;;5041479;28;20420;-55
2024/01/16 11:58:37;;;;;;;;;;;4.30;73.50;;;;;;5029415;28;19932;-55
2024/01/16 12:01:05;;;;;;;;;;;4.30;73.60;;;;;;5028444;28;19975;-52
2024/01/16 12:03:31;;;;;;;;;;;4.30;73.60;;;;;;5033776;28;19921;-51
2024/01/16 12:06:02;;;;;;;;;;;4.30;73.60;;;;;;5033752;28;19932;-53
2024/01/16 12:08:29;;;;;;;;;;;4.40;73.60;;;;;;5034355;28;19920;-53
2024/01/16 12:10:56;;;;;;;;;;;4.40;73.70;;;;;;5032214;28;19977;-56
2024/01/16 12:13:23;;;;;;;;;;;4.40;73.50;;;;;;5037714;28;19992;-55
2024/01/16 12:15:59;;;;;;;;;;;4.40;73.30;;;;;;5039088;28;19948;-56
2024/01/16 12:18:28;;;;;;;;;;;4.40;73.90;;;;;;5038174;28;19931;-55
2024/01/16 12:21:09;;;;;;;;;;;4.40;73.40;;;;;;5034496;28;20011;-56
2024/01/16 12:23:36;;;;;;;;;;;4.40;73.40;;;;;;5041529;28;20369;-55
2024/01/16 12:26:03;;;;;;;;;;;4.50;73.30;;;;;;5036474;28;20386;-54
2024/01/16 12:28:31;;;;;;;;;;;4.50;73.40;;;;;;5014492;28;19927;-55
2024/01/16 12:30:59;;;;;;;;;;;4.50;71.90;;;;;;5030685;28;19928;-56
2024/01/16 12:33:30;;;;;;;;;;;4.50;72.80;;;;;;5035537;28;20393;-56
2024/01/16 12:36:02;;;;;;;;;;;4.50;72.70;;;;;;5035113;28;20011;-56
2024/01/16 12:38:32;;;;;;;;;;;4.50;72.50;;;;;;5015582;28;19951;-55
2024/01/16 12:41:01;;;;;;;;;;;4.50;72.60;;;;;;5030455;28;19921;-57
2024/01/16 12:43:29;;;;;;;;;;;4.50;72.70;;;;;;5038940;28;19937;-54
2024/01/16 12:45:56;;;;;;;;;;;4.50;72.40;;;;;;5033825;28;20351;-56
2024/01/16 12:48:23;;;;;;;;;;;4.50;72.80;;;;;;5030380;28;20338;-56
2024/01/16 12:50:58;;;;;;;;;;;4.50;72.20;;;;;;5035314;28;19978;-56
2024/01/16 12:53:25;;;;;;;;;;;4.60;72.20;;;;;;5039695;28;19921;-56
2024/01/16 12:55:59;;;;;;;;;;;4.60;72.10;;;;;;5033139;28;19925;-56
2024/01/16 12:58:31;;;;;;;;;;;4.60;72.20;;;;;;5031564;28;20279;-53
2024/01/16 13:01:18;;;;;;;;;;;4.60;72.40;;;;;;5028797;28;20346;-57
2024/01/16 13:03:56;;;;;;;;;;;4.60;72.30;;;;;;5035450;28;19967;-56
2024/01/16 13:06:23;;;;;;;;;;;4.60;72.20;;;;;;5035955;28;19921;-56
2024/01/16 13:08:50;;;;;;;;;;;4.70;72.00;;;;;;5037015;28;20480;-56
2024/01/16 13:11:19;;;;;;;;;;;4.70;72.10;;;;;;5029574;28;19940;-56
2024/01/16 13:14:04;;;;;;;;;;;4.70;72.10;;;;;;5029132;28;19956;-57
2024/01/16 13:16:31;;;;;;;;;;;4.70;72.10;;;;;;5037851;28;20023;-56
2024/01/16 13:19:02;;;;;;;;;;;4.80;72.00;;;;;;5032166;28;19956;-56
2024/01/16 13:21:28;;;;;;;;;;;4.80;72.10;;;;;;5030271;28;19921;-55
2024/01/16 13:23:56;;;;;;;;;;;4.80;72.30;;;;;;5030767;28;19960;-56
2024/01/16 13:26:22;;;;;;;;;;;4.80;72.50;;;;;;5036193;28;19956;-55
2024/01/16 13:28:50;;;;;;;;;;;4.80;72.30;;;;;;5033531;28;19920;-56
2024/01/16 13:31:17;;;;;;;;;;;4.80;72.20;;;;;;5031066;28;19972;-56
2024/01/16 13:33:44;;;;;;;;;;;4.80;72.20;;;;;;5038119;28;19921;-56
2024/01/16 13:36:11;;;;;;;;;;;4.80;72.20;;;;;;5035852;28;20290;-56
2024/01/16 13:38:38;;;;;;;;;;;4.80;72.30;;;;;;5033831;28;19927;-55
2024/01/16 13:41:04;;;;;;;;;;;4.80;72.10;;;;;;5026610;28;19925;-56
2024/01/16 13:43:32;;;;;;;;;;;4.90;72.10;;;;;;5040295;28;20007;-56
2024/01/16 13:45:58;;;;;;;;;;;4.90;72.00;;;;;;5043289;28;19928;-57
2024/01/16 13:48:25;;;;;;;;;;;4.90;72.20;;;;;;5032123;28;20345;-56
2024/01/16 13:50:52;;;;;;;;;;;4.90;72.00;;;;;;5039313;28;19928;-55
2024/01/16 13:53:18;;;;;;;;;;;4.90;72.40;;;;;;5038718;28;19925;-56
2024/01/16 13:55:45;;;;;;;;;;;4.90;71.90;;;;;;5019825;28;19928;-56
2024/01/16 13:58:12;;;;;;;;;;;4.90;72.00;;;;;;4994662;28;1038962;-57
2024/01/16 14:00:39;;;;;;;;;;;4.90;72.00;;;;;;5031734;28;20642;-56
2024/01/16 14:03:08;;;;;;;;;;;4.90;71.90;;;;;;5026719;28;19921;-53
2024/01/16 14:05:36;;;;;;;;;;;4.90;71.60;;;;;;5041502;28;20002;-56
2024/01/16 14:08:03;;;;;;;;;;;4.90;71.70;;;;;;5038692;28;19925;-56
2024/01/16 14:10:29;;;;;;;;;;;4.90;71.80;;;;;;5033090;28;19925;-56
2024/01/16 14:12:56;;;;;;;;;;;4.90;71.50;;;;;;5024401;28;20042;-56
2024/01/16 14:15:23;;;;;;;;;;;4.90;71.30;;;;;;5038338;28;19921;-56
2024/01/16 14:17:51;;;;;;;;;;;4.90;71.30;;;;;;5035146;28;19921;-56
2024/01/16 14:20:21;;;;;;;;;;;4.90;71.70;;;;;;5031843;28;19932;-56
2024/01/16 14:22:52;;;;;;;;;;;4.90;71.50;;;;;;5038058;28;20025;-56
2024/01/16 14:25:19;;;;;;;;;;;4.90;71.70;;;;;;5037505;28;20019;-55
2024/01/16 14:27:48;;;;;;;;;;;4.90;71.50;;;;;;5032980;28;19967;-54
2024/01/16 14:30:15;;;;;;;;;;;4.90;71.30;;;;;;5036797;28;19956;-56
2024/01/16 14:32:43;;;;;;;;;;;4.90;71.40;;;;;;5026159;28;19920;-56
2024/01/16 14:35:11;;;;;;;;;;;4.90;71.20;;;;;;5035785;28;20386;-55
2024/01/16 14:37:37;;;;;;;;;;;4.90;71.20;;;;;;5037728;28;19936;-56